sensor_id;sensor_type;location;lat;lon;timestamp;temperature;humidity
27803;DHT22;15182;48.174;11.562;2023-04-25T00:02:15;13.70;84.70
27803;DHT22;15182;48.174;11.562;2023-04-25T00:04:47;13.70;84.70
27803;DHT22;15182;48.174;11.562;2023-04-25T00:07:20;13.70;84.70
27803;DHT22;15182;48.174;11.562;2023-04-25T00:09:51;13.70;84.90
27803;DHT22;15182;48.174;11.562;2023-04-25T00:12:22;13.70;84.90
27803;DHT22;15182;48.174;11.562;2023-04-25T00:14:57;13.70;85.00
27803;DHT22;15182;48.174;11.562;2023-04-25T00:17:29;13.70;85.20
27803;DHT22;15182;48.174;11.562;2023-04-25T00:20:02;13.70;85.10
27803;DHT22;15182;48.174;11.562;2023-04-25T00:22:39;13.60;85.10
27803;DHT22;15182;48.174;11.562;2023-04-25T00:25:12;13.60;85.10
27803;DHT22;15182;48.174;11.562;2023-04-25T00:27:43;13.60;85.10
27803;DHT22;15182;48.174;11.562;2023-04-25T00:30:16;13.60;85.10
27803;DHT22;15182;48.174;11.562;2023-04-25T00:32:47;13.60;85.20
27803;DHT22;15182;48.174;11.562;2023-04-25T00:35:18;13.60;85.30
27803;DHT22;15182;48.174;11.562;2023-04-25T00:37:51;13.60;85.70
27803;DHT22;15182;48.174;11.562;2023-04-25T00:40:30;13.60;85.60
27803;DHT22;15182;48.174;11.562;2023-04-25T00:43:03;13.60;85.60
27803;DHT22;15182;48.174;11.562;2023-04-25T00:45:39;13.60;85.70
27803;DHT22;15182;48.174;11.562;2023-04-25T00:48:13;13.60;85.70
27803;DHT22;15182;48.174;11.562;2023-04-25T00:50:44;13.60;85.60
27803;DHT22;15182;48.174;11.562;2023-04-25T00:53:22;13.60;85.60
27803;DHT22;15182;48.174;11.562;2023-04-25T00:55:55;13.60;85.60
27803;DHT22;15182;48.174;11.562;2023-04-25T00:58:25;13.60;85.60
27803;DHT22;15182;48.174;11.562;2023-04-25T01:00:53;13.60;85.40
27803;DHT22;15182;48.174;11.562;2023-04-25T01:03:22;13.60;85.40
27803;DHT22;15182;48.174;11.562;2023-04-25T01:05:50;13.50;85.50
27803;DHT22;15182;48.174;11.562;2023-04-25T01:08:19;13.50;85.60
27803;DHT22;15182;48.174;11.562;2023-04-25T01:10:49;13.50;85.50
27803;DHT22;15182;48.174;11.562;2023-04-25T01:13:17;13.60;85.60
27803;DHT22;15182;48.174;11.562;2023-04-25T01:15:45;13.50;85.60
27803;DHT22;15182;48.174;11.562;2023-04-25T01:18:13;13.50;85.60
27803;DHT22;15182;48.174;11.562;2023-04-25T01:20:41;13.60;85.80
27803;DHT22;15182;48.174;11.562;2023-04-25T01:23:11;13.60;85.90
27803;DHT22;15182;48.174;11.562;2023-04-25T01:25:40;13.60;86.00
27803;DHT22;15182;48.174;11.562;2023-04-25T01:28:08;13.60;85.90
27803;DHT22;15182;48.174;11.562;2023-04-25T01:30:37;13.60;85.80
27803;DHT22;15182;48.174;11.562;2023-04-25T01:33:07;13.60;85.90
27803;DHT22;15182;48.174;11.562;2023-04-25T01:35:35;13.70;85.90
27803;DHT22;15182;48.174;11.562;2023-04-25T01:38:03;13.70;85.80
27803;DHT22;15182;48.174;11.562;2023-04-25T01:40:34;13.60;85.70
27803;DHT22;15182;48.174;11.562;2023-04-25T01:43:05;13.70;85.90
27803;DHT22;15182;48.174;11.562;2023-04-25T01:45:34;13.60;85.80
27803;DHT22;15182;48.174;11.562;2023-04-25T01:48:03;13.60;85.80
27803;DHT22;15182;48.174;11.562;2023-04-25T01:50:31;13.70;85.80
27803;DHT22;15182;48.174;11.562;2023-04-25T01:52:59;13.70;85.70
27803;DHT22;15182;48.174;11.562;2023-04-25T01:55:28;13.60;85.70
27803;DHT22;15182;48.174;11.562;2023-04-25T01:58:03;13.60;85.80
27803;DHT22;15182;48.174;11.562;2023-04-25T02:01:01;13.70;85.90
27803;DHT22;15182;48.174;11.562;2023-04-25T02:03:36;13.60;85.70
27803;DHT22;15182;48.174;11.562;2023-04-25T02:06:07;13.60;85.60
27803;DHT22;15182;48.174;11.562;2023-04-25T02:08:38;13.60;85.70
27803;DHT22;15182;48.174;11.562;2023-04-25T02:11:06;13.60;86.20
27803;DHT22;15182;48.174;11.562;2023-04-25T02:13:42;13.60;85.70
27803;DHT22;15182;48.174;11.562;2023-04-25T02:16:19;13.60;85.70
27803;DHT22;15182;48.174;11.562;2023-04-25T02:18:47;13.60;85.70
27803;DHT22;15182;48.174;11.562;2023-04-25T02:21:19;13.60;85.60
27803;DHT22;15182;48.174;11.562;2023-04-25T02:23:47;13.60;85.70
27803;DHT22;15182;48.174;11.562;2023-04-25T02:26:15;13.50;85.60
27803;DHT22;15182;48.174;11.562;2023-04-25T02:28:44;13.60;85.70
27803;DHT22;15182;48.174;11.562;2023-04-25T02:31:12;13.50;85.70
27803;DHT22;15182;48.174;11.562;2023-04-25T02:33:40;13.50;85.60
27803;DHT22;15182;48.174;11.562;2023-04-25T02:36:08;13.50;85.60
27803;DHT22;15182;48.174;11.562;2023-04-25T02:38:36;13.50;85.60
27803;DHT22;15182;48.174;11.562;2023-04-25T02:41:04;13.50;85.60
27803;DHT22;15182;48.174;11.562;2023-04-25T02:43:32;13.50;85.50
27803;DHT22;15182;48.174;11.562;2023-04-25T02:46:02;13.50;85.50
27803;DHT22;15182;48.174;11.562;2023-04-25T02:48:29;13.50;85.50
27803;DHT22;15182;48.174;11.562;2023-04-25T02:50:57;13.50;85.50
27803;DHT22;15182;48.174;11.562;2023-04-25T02:53:25;13.50;85.50
27803;DHT22;15182;48.174;11.562;2023-04-25T02:55:54;13.50;85.60
27803;DHT22;15182;48.174;11.562;2023-04-25T02:58:24;13.50;85.60
27803;DHT22;15182;48.174;11.562;2023-04-25T03:00:53;13.40;85.60
27803;DHT22;15182;48.174;11.562;2023-04-25T03:03:23;13.40;85.30
27803;DHT22;15182;48.174;11.562;2023-04-25T03:05:52;13.40;85.60
27803;DHT22;15182;48.174;11.562;2023-04-25T03:08:25;13.40;85.40
27803;DHT22;15182;48.174;11.562;2023-04-25T03:10:57;13.40;85.40
27803;DHT22;15182;48.174;11.562;2023-04-25T03:13:25;13.30;85.30
27803;DHT22;15182;48.174;11.562;2023-04-25T03:15:54;13.30;85.50
27803;DHT22;15182;48.174;11.562;2023-04-25T03:18:23;13.30;85.40
27803;DHT22;15182;48.174;11.562;2023-04-25T03:20:51;13.30;85.50
27803;DHT22;15182;48.174;11.562;2023-04-25T03:23:18;13.20;85.30
27803;DHT22;15182;48.174;11.562;2023-04-25T03:25:46;13.20;85.70
27803;DHT22;15182;48.174;11.562;2023-04-25T03:28:14;13.10;85.90
27803;DHT22;15182;48.174;11.562;2023-04-25T03:30:42;13.10;86.20
27803;DHT22;15182;48.174;11.562;2023-04-25T03:33:10;13.10;86.40
27803;DHT22;15182;48.174;11.562;2023-04-25T03:35:39;13.10;86.50
27803;DHT22;15182;48.174;11.562;2023-04-25T03:38:08;13.00;86.50
27803;DHT22;15182;48.174;11.562;2023-04-25T03:40:39;13.00;86.40
27803;DHT22;15182;48.174;11.562;2023-04-25T03:43:18;13.00;86.40
27803;DHT22;15182;48.174;11.562;2023-04-25T03:45:52;13.00;86.30
27803;DHT22;15182;48.174;11.562;2023-04-25T03:48:22;12.90;86.30
27803;DHT22;15182;48.174;11.562;2023-04-25T03:50:53;12.90;86.40
27803;DHT22;15182;48.174;11.562;2023-04-25T03:53:21;12.80;86.50
27803;DHT22;15182;48.174;11.562;2023-04-25T03:56:14;12.80;86.60
27803;DHT22;15182;48.174;11.562;2023-04-25T03:58:44;12.80;86.60
27803;DHT22;15182;48.174;11.562;2023-04-25T04:01:13;12.80;86.60
27803;DHT22;15182;48.174;11.562;2023-04-25T04:03:41;12.70;86.80
27803;DHT22;15182;48.174;11.562;2023-04-25T04:06:11;12.70;86.80
27803;DHT22;15182;48.174;11.562;2023-04-25T04:08:42;12.70;86.80
27803;DHT22;15182;48.174;11.562;2023-04-25T04:11:11;12.70;86.80
27803;DHT22;15182;48.174;11.562;2023-04-25T04:13:39;12.70;86.90
27803;DHT22;15182;48.174;11.562;2023-04-25T04:16:09;12.70;87.00
27803;DHT22;15182;48.174;11.562;2023-04-25T04:18:37;12.70;86.90
27803;DHT22;15182;48.174;11.562;2023-04-25T04:21:05;12.70;86.90
27803;DHT22;15182;48.174;11.562;2023-04-25T04:23:37;12.70;86.90
27803;DHT22;15182;48.174;11.562;2023-04-25T04:26:05;12.70;86.90
27803;DHT22;15182;48.174;11.562;2023-04-25T04:28:45;12.60;86.80
27803;DHT22;15182;48.174;11.562;2023-04-25T04:31:36;12.60;87.00
27803;DHT22;15182;48.174;11.562;2023-04-25T04:34:04;12.60;87.20
27803;DHT22;15182;48.174;11.562;2023-04-25T04:36:33;12.60;87.30
27803;DHT22;15182;48.174;11.562;2023-04-25T04:39:05;12.50;87.30
27803;DHT22;15182;48.174;11.562;2023-04-25T04:41:37;12.50;87.70
27803;DHT22;15182;48.174;11.562;2023-04-25T04:44:10;12.50;87.30
27803;DHT22;15182;48.174;11.562;2023-04-25T04:46:58;12.40;87.50
27803;DHT22;15182;48.174;11.562;2023-04-25T04:49:40;12.40;87.70
27803;DHT22;15182;48.174;11.562;2023-04-25T04:52:31;12.40;87.80
27803;DHT22;15182;48.174;11.562;2023-04-25T04:55:18;12.40;88.00
27803;DHT22;15182;48.174;11.562;2023-04-25T04:58:04;12.40;88.10
27803;DHT22;15182;48.174;11.562;2023-04-25T05:00:42;12.40;88.10
27803;DHT22;15182;48.174;11.562;2023-04-25T05:03:10;12.40;88.20
27803;DHT22;15182;48.174;11.562;2023-04-25T05:05:51;12.40;88.30
27803;DHT22;15182;48.174;11.562;2023-04-25T05:08:32;12.40;88.50
27803;DHT22;15182;48.174;11.562;2023-04-25T05:11:28;12.40;88.60
27803;DHT22;15182;48.174;11.562;2023-04-25T05:14:04;12.40;88.70
27803;DHT22;15182;48.174;11.562;2023-04-25T05:16:43;12.40;88.80
27803;DHT22;15182;48.174;11.562;2023-04-25T05:19:34;12.50;89.00
27803;DHT22;15182;48.174;11.562;2023-04-25T05:22:23;12.50;88.80
27803;DHT22;15182;48.174;11.562;2023-04-25T05:24:59;12.50;89.20
27803;DHT22;15182;48.174;11.562;2023-04-25T05:27:45;12.50;89.10
27803;DHT22;15182;48.174;11.562;2023-04-25T05:30:36;12.50;88.90
27803;DHT22;15182;48.174;11.562;2023-04-25T05:33:09;12.50;88.90
27803;DHT22;15182;48.174;11.562;2023-04-25T05:35:37;12.50;89.00
27803;DHT22;15182;48.174;11.562;2023-04-25T05:38:06;12.50;89.10
27803;DHT22;15182;48.174;11.562;2023-04-25T05:40:55;12.50;89.10
27803;DHT22;15182;48.174;11.562;2023-04-25T05:43:47;12.40;89.40
27803;DHT22;15182;48.174;11.562;2023-04-25T05:46:36;12.40;89.80
27803;DHT22;15182;48.174;11.562;2023-04-25T05:49:23;12.40;89.90
27803;DHT22;15182;48.174;11.562;2023-04-25T05:51:54;12.40;90.00
27803;DHT22;15182;48.174;11.562;2023-04-25T05:54:39;12.30;90.10
27803;DHT22;15182;48.174;11.562;2023-04-25T05:57:19;12.30;90.20
27803;DHT22;15182;48.174;11.562;2023-04-25T05:59:51;12.30;90.40
27803;DHT22;15182;48.174;11.562;2023-04-25T06:02:23;12.30;90.30
27803;DHT22;15182;48.174;11.562;2023-04-25T06:04:55;12.30;90.30
27803;DHT22;15182;48.174;11.562;2023-04-25T06:07:27;12.20;90.20
27803;DHT22;15182;48.174;11.562;2023-04-25T06:09:58;12.20;90.30
27803;DHT22;15182;48.174;11.562;2023-04-25T06:12:30;12.20;90.40
27803;DHT22;15182;48.174;11.562;2023-04-25T06:15:03;12.10;90.50
27803;DHT22;15182;48.174;11.562;2023-04-25T06:17:36;12.10;90.70
27803;DHT22;15182;48.174;11.562;2023-04-25T06:20:07;12.00;90.70
27803;DHT22;15182;48.174;11.562;2023-04-25T06:22:41;12.00;90.80
27803;DHT22;15182;48.174;11.562;2023-04-25T06:25:13;11.90;90.90
27803;DHT22;15182;48.174;11.562;2023-04-25T06:27:44;11.90;91.10
27803;DHT22;15182;48.174;11.562;2023-04-25T06:30:17;11.90;91.20
27803;DHT22;15182;48.174;11.562;2023-04-25T06:32:53;11.90;91.40
27803;DHT22;15182;48.174;11.562;2023-04-25T06:35:25;11.90;91.40
27803;DHT22;15182;48.174;11.562;2023-04-25T06:37:56;11.90;91.50
27803;DHT22;15182;48.174;11.562;2023-04-25T06:40:28;11.90;91.60
27803;DHT22;15182;48.174;11.562;2023-04-25T06:42:59;11.90;91.60
27803;DHT22;15182;48.174;11.562;2023-04-25T06:45:46;11.90;91.70
27803;DHT22;15182;48.174;11.562;2023-04-25T06:48:18;11.90;92.00
27803;DHT22;15182;48.174;11.562;2023-04-25T06:50:49;11.90;92.00
27803;DHT22;15182;48.174;11.562;2023-04-25T06:53:21;11.90;92.20
27803;DHT22;15182;48.174;11.562;2023-04-25T06:55:58;12.00;92.40
27803;DHT22;15182;48.174;11.562;2023-04-25T06:58:49;12.10;92.50
27803;DHT22;15182;48.174;11.562;2023-04-25T07:01:40;12.20;92.70
27803;DHT22;15182;48.174;11.562;2023-04-25T07:04:16;12.30;92.90
27803;DHT22;15182;48.174;11.562;2023-04-25T07:06:55;12.40;92.80
27803;DHT22;15182;48.174;11.562;2023-04-25T07:09:44;12.60;92.60
27803;DHT22;15182;48.174;11.562;2023-04-25T07:12:17;12.60;92.80
27803;DHT22;15182;48.174;11.562;2023-04-25T07:14:48;12.70;92.30
27803;DHT22;15182;48.174;11.562;2023-04-25T07:17:21;12.70;92.80
27803;DHT22;15182;48.174;11.562;2023-04-25T07:19:53;12.80;92.50
27803;DHT22;15182;48.174;11.562;2023-04-25T07:22:24;12.80;92.30
27803;DHT22;15182;48.174;11.562;2023-04-25T07:24:56;12.80;92.20
27803;DHT22;15182;48.174;11.562;2023-04-25T07:27:30;12.90;92.00
27803;DHT22;15182;48.174;11.562;2023-04-25T07:30:11;12.90;92.00
27803;DHT22;15182;48.174;11.562;2023-04-25T07:32:44;12.90;92.00
27803;DHT22;15182;48.174;11.562;2023-04-25T07:35:15;12.90;92.20
27803;DHT22;15182;48.174;11.562;2023-04-25T07:37:47;12.90;92.30
27803;DHT22;15182;48.174;11.562;2023-04-25T07:40:20;13.00;92.40
27803;DHT22;15182;48.174;11.562;2023-04-25T07:42:56;13.10;92.50
27803;DHT22;15182;48.174;11.562;2023-04-25T07:45:38;13.20;92.50
27803;DHT22;15182;48.174;11.562;2023-04-25T07:48:10;13.30;92.40
27803;DHT22;15182;48.174;11.562;2023-04-25T07:50:45;13.30;92.30
27803;DHT22;15182;48.174;11.562;2023-04-25T07:53:17;13.40;92.40
27803;DHT22;15182;48.174;11.562;2023-04-25T07:55:59;13.50;92.30
27803;DHT22;15182;48.174;11.562;2023-04-25T07:58:36;13.60;92.20
27803;DHT22;15182;48.174;11.562;2023-04-25T08:01:10;13.70;92.40
27803;DHT22;15182;48.174;11.562;2023-04-25T08:03:54;13.80;92.30
27803;DHT22;15182;48.174;11.562;2023-04-25T08:06:50;14.00;92.20
27803;DHT22;15182;48.174;11.562;2023-04-25T08:09:25;14.20;92.00
27803;DHT22;15182;48.174;11.562;2023-04-25T08:11:57;14.30;92.00
27803;DHT22;15182;48.174;11.562;2023-04-25T08:14:33;14.50;91.90
27803;DHT22;15182;48.174;11.562;2023-04-25T08:17:06;14.60;91.70
27803;DHT22;15182;48.174;11.562;2023-04-25T08:19:43;14.80;91.60
27803;DHT22;15182;48.174;11.562;2023-04-25T08:22:24;14.90;91.10
27803;DHT22;15182;48.174;11.562;2023-04-25T08:25:08;14.90;90.80
27803;DHT22;15182;48.174;11.562;2023-04-25T08:27:41;14.90;90.40
27803;DHT22;15182;48.174;11.562;2023-04-25T08:30:14;14.90;90.30
27803;DHT22;15182;48.174;11.562;2023-04-25T08:32:46;14.90;90.10
27803;DHT22;15182;48.174;11.562;2023-04-25T08:35:29;14.90;90.10
27803;DHT22;15182;48.174;11.562;2023-04-25T08:38:02;14.90;90.20
27803;DHT22;15182;48.174;11.562;2023-04-25T08:40:38;14.90;90.10
27803;DHT22;15182;48.174;11.562;2023-04-25T08:43:19;14.90;90.00
27803;DHT22;15182;48.174;11.562;2023-04-25T08:45:51;14.90;89.80
27803;DHT22;15182;48.174;11.562;2023-04-25T08:48:42;14.90;89.50
27803;DHT22;15182;48.174;11.562;2023-04-25T08:51:24;15.00;89.30
27803;DHT22;15182;48.174;11.562;2023-04-25T08:54:00;15.10;89.80
27803;DHT22;15182;48.174;11.562;2023-04-25T08:56:40;15.20;89.80
27803;DHT22;15182;48.174;11.562;2023-04-25T08:59:13;15.30;89.10
27803;DHT22;15182;48.174;11.562;2023-04-25T09:01:46;15.40;88.50
27803;DHT22;15182;48.174;11.562;2023-04-25T09:04:19;15.50;87.80
27803;DHT22;15182;48.174;11.562;2023-04-25T09:06:52;15.60;87.20
27803;DHT22;15182;48.174;11.562;2023-04-25T09:09:25;15.60;87.10
27803;DHT22;15182;48.174;11.562;2023-04-25T09:11:56;15.70;86.50
27803;DHT22;15182;48.174;11.562;2023-04-25T09:14:30;15.80;86.20
27803;DHT22;15182;48.174;11.562;2023-04-25T09:17:05;15.80;85.60
27803;DHT22;15182;48.174;11.562;2023-04-25T09:19:55;15.90;85.20
27803;DHT22;15182;48.174;11.562;2023-04-25T09:22:34;15.90;85.40
27803;DHT22;15182;48.174;11.562;2023-04-25T09:25:07;15.90;85.30
27803;DHT22;15182;48.174;11.562;2023-04-25T09:27:51;16.10;85.10
27803;DHT22;15182;48.174;11.562;2023-04-25T09:30:33;16.20;83.60
27803;DHT22;15182;48.174;11.562;2023-04-25T09:33:14;16.40;82.90
27803;DHT22;15182;48.174;11.562;2023-04-25T09:35:50;16.50;82.90
27803;DHT22;15182;48.174;11.562;2023-04-25T09:38:39;16.60;83.20
27803;DHT22;15182;48.174;11.562;2023-04-25T09:41:27;16.70;82.50
27803;DHT22;15182;48.174;11.562;2023-04-25T09:44:02;16.80;82.70
27803;DHT22;15182;48.174;11.562;2023-04-25T09:46:37;16.90;82.20
27803;DHT22;15182;48.174;11.562;2023-04-25T09:49:16;16.90;81.50
27803;DHT22;15182;48.174;11.562;2023-04-25T09:52:07;17.00;81.20
27803;DHT22;15182;48.174;11.562;2023-04-25T09:54:46;17.00;80.80
27803;DHT22;15182;48.174;11.562;2023-04-25T09:57:26;16.90;80.40
27803;DHT22;15182;48.174;11.562;2023-04-25T10:00:02;17.00;80.80
27803;DHT22;15182;48.174;11.562;2023-04-25T10:02:44;17.10;81.10
27803;DHT22;15182;48.174;11.562;2023-04-25T10:05:40;17.30;80.90
27803;DHT22;15182;48.174;11.562;2023-04-25T10:08:14;17.40;80.20
27803;DHT22;15182;48.174;11.562;2023-04-25T10:10:48;17.50;79.70
27803;DHT22;15182;48.174;11.562;2023-04-25T10:13:20;17.50;79.10
27803;DHT22;15182;48.174;11.562;2023-04-25T10:15:52;17.50;78.80
27803;DHT22;15182;48.174;11.562;2023-04-25T10:18:27;17.50;78.80
27803;DHT22;15182;48.174;11.562;2023-04-25T10:21:00;17.50;79.40
27803;DHT22;15182;48.174;11.562;2023-04-25T10:23:33;17.50;79.20
27803;DHT22;15182;48.174;11.562;2023-04-25T10:26:07;17.60;79.70
27803;DHT22;15182;48.174;11.562;2023-04-25T10:28:57;17.60;78.90
27803;DHT22;15182;48.174;11.562;2023-04-25T10:31:30;17.70;78.50
27803;DHT22;15182;48.174;11.562;2023-04-25T10:34:02;17.80;78.50
27803;DHT22;15182;48.174;11.562;2023-04-25T10:36:34;17.80;78.10
27803;DHT22;15182;48.174;11.562;2023-04-25T10:39:06;17.80;78.40
27803;DHT22;15182;48.174;11.562;2023-04-25T10:41:51;17.70;77.20
27803;DHT22;15182;48.174;11.562;2023-04-25T10:44:29;17.60;77.40
27803;DHT22;15182;48.174;11.562;2023-04-25T10:47:01;17.50;78.10
27803;DHT22;15182;48.174;11.562;2023-04-25T10:49:36;17.30;78.70
27803;DHT22;15182;48.174;11.562;2023-04-25T10:52:24;17.10;78.50
27803;DHT22;15182;48.174;11.562;2023-04-25T10:54:55;16.90;78.00
27803;DHT22;15182;48.174;11.562;2023-04-25T10:57:36;16.70;78.40
27803;DHT22;15182;48.174;11.562;2023-04-25T11:00:08;16.50;78.60
27803;DHT22;15182;48.174;11.562;2023-04-25T11:02:43;16.30;79.70
27803;DHT22;15182;48.174;11.562;2023-04-25T11:05:29;16.20;80.70
27803;DHT22;15182;48.174;11.562;2023-04-25T11:08:03;16.00;81.60
27803;DHT22;15182;48.174;11.562;2023-04-25T11:10:41;15.90;82.00
27803;DHT22;15182;48.174;11.562;2023-04-25T11:13:14;15.70;82.50
27803;DHT22;15182;48.174;11.562;2023-04-25T11:15:46;15.60;83.10
27803;DHT22;15182;48.174;11.562;2023-04-25T11:18:25;15.60;83.40
27803;DHT22;15182;48.174;11.562;2023-04-25T11:20:57;15.50;84.20
27803;DHT22;15182;48.174;11.562;2023-04-25T11:23:28;15.50;84.80
27803;DHT22;15182;48.174;11.562;2023-04-25T11:26:00;15.40;84.80
27803;DHT22;15182;48.174;11.562;2023-04-25T11:28:33;15.40;84.50
27803;DHT22;15182;48.174;11.562;2023-04-25T11:31:04;15.30;84.50
27803;DHT22;15182;48.174;11.562;2023-04-25T11:33:35;15.20;84.30
27803;DHT22;15182;48.174;11.562;2023-04-25T11:36:17;15.10;84.10
27803;DHT22;15182;48.174;11.562;2023-04-25T11:38:48;15.00;84.20
27803;DHT22;15182;48.174;11.562;2023-04-25T11:41:19;14.90;84.80
27803;DHT22;15182;48.174;11.562;2023-04-25T11:43:52;14.90;84.70
27803;DHT22;15182;48.174;11.562;2023-04-25T11:46:24;14.90;85.30
27803;DHT22;15182;48.174;11.562;2023-04-25T11:48:57;14.80;85.40
27803;DHT22;15182;48.174;11.562;2023-04-25T11:51:28;14.80;85.80
27803;DHT22;15182;48.174;11.562;2023-04-25T11:54:00;14.80;86.20
27803;DHT22;15182;48.174;11.562;2023-04-25T11:56:31;14.80;86.30
27803;DHT22;15182;48.174;11.562;2023-04-25T11:59:07;14.80;86.90
27803;DHT22;15182;48.174;11.562;2023-04-25T12:01:40;14.70;86.80
27803;DHT22;15182;48.174;11.562;2023-04-25T12:04:18;14.60;87.00
27803;DHT22;15182;48.174;11.562;2023-04-25T12:06:52;14.50;87.00
27803;DHT22;15182;48.174;11.562;2023-04-25T12:09:30;14.40;87.30
27803;DHT22;15182;48.174;11.562;2023-04-25T12:12:03;14.30;88.00
27803;DHT22;15182;48.174;11.562;2023-04-25T12:14:37;14.10;88.00
27803;DHT22;15182;48.174;11.562;2023-04-25T12:17:09;14.00;88.80
27803;DHT22;15182;48.174;11.562;2023-04-25T12:19:40;13.90;89.10
27803;DHT22;15182;48.174;11.562;2023-04-25T12:22:22;13.80;89.20
27803;DHT22;15182;48.174;11.562;2023-04-25T12:24:54;13.70;89.80
27803;DHT22;15182;48.174;11.562;2023-04-25T12:27:27;13.70;89.50
27803;DHT22;15182;48.174;11.562;2023-04-25T12:30:00;13.70;89.40
27803;DHT22;15182;48.174;11.562;2023-04-25T12:32:32;13.60;89.80
27803;DHT22;15182;48.174;11.562;2023-04-25T12:35:06;13.60;89.70
27803;DHT22;15182;48.174;11.562;2023-04-25T12:37:40;13.60;90.30
27803;DHT22;15182;48.174;11.562;2023-04-25T12:40:12;13.50;89.90
27803;DHT22;15182;48.174;11.562;2023-04-25T12:42:43;13.50;90.10
27803;DHT22;15182;48.174;11.562;2023-04-25T12:45:16;13.50;90.30
27803;DHT22;15182;48.174;11.562;2023-04-25T12:47:47;13.50;90.40
27803;DHT22;15182;48.174;11.562;2023-04-25T12:50:19;13.50;90.40
27803;DHT22;15182;48.174;11.562;2023-04-25T12:52:50;13.50;90.40
27803;DHT22;15182;48.174;11.562;2023-04-25T12:55:22;13.60;90.60
27803;DHT22;15182;48.174;11.562;2023-04-25T12:57:55;13.60;90.40
27803;DHT22;15182;48.174;11.562;2023-04-25T13:00:28;13.60;90.60
27803;DHT22;15182;48.174;11.562;2023-04-25T13:02:59;13.50;90.60
27803;DHT22;15182;48.174;11.562;2023-04-25T13:05:32;13.50;90.60
27803;DHT22;15182;48.174;11.562;2023-04-25T13:08:04;13.50;90.70
27803;DHT22;15182;48.174;11.562;2023-04-25T13:10:36;13.40;90.80
27803;DHT22;15182;48.174;11.562;2023-04-25T13:13:08;13.40;91.00
27803;DHT22;15182;48.174;11.562;2023-04-25T13:15:40;13.40;90.80
27803;DHT22;15182;48.174;11.562;2023-04-25T13:18:12;13.40;90.80
27803;DHT22;15182;48.174;11.562;2023-04-25T13:20:44;13.40;90.90
27803;DHT22;15182;48.174;11.562;2023-04-25T13:23:15;13.40;91.10
27803;DHT22;15182;48.174;11.562;2023-04-25T13:25:46;13.30;91.10
27803;DHT22;15182;48.174;11.562;2023-04-25T13:28:18;13.30;91.20
27803;DHT22;15182;48.174;11.562;2023-04-25T13:30:50;13.30;91.20
27803;DHT22;15182;48.174;11.562;2023-04-25T13:33:22;13.30;91.30
27803;DHT22;15182;48.174;11.562;2023-04-25T13:35:53;13.30;91.70
27803;DHT22;15182;48.174;11.562;2023-04-25T13:38:26;13.30;91.30
27803;DHT22;15182;48.174;11.562;2023-04-25T13:40:57;13.30;91.40
27803;DHT22;15182;48.174;11.562;2023-04-25T13:43:28;13.30;91.40
27803;DHT22;15182;48.174;11.562;2023-04-25T13:46:03;13.30;91.40
27803;DHT22;15182;48.174;11.562;2023-04-25T13:48:34;13.30;91.40
27803;DHT22;15182;48.174;11.562;2023-04-25T13:51:05;13.30;91.30
27803;DHT22;15182;48.174;11.562;2023-04-25T13:53:36;13.30;91.30
27803;DHT22;15182;48.174;11.562;2023-04-25T13:56:08;13.30;91.30
27803;DHT22;15182;48.174;11.562;2023-04-25T13:58:40;13.30;91.50
27803;DHT22;15182;48.174;11.562;2023-04-25T14:01:13;13.30;91.50
27803;DHT22;15182;48.174;11.562;2023-04-25T14:03:45;13.30;91.70
27803;DHT22;15182;48.174;11.562;2023-04-25T14:06:16;13.20;91.70
27803;DHT22;15182;48.174;11.562;2023-04-25T14:08:51;13.20;91.70
27803;DHT22;15182;48.174;11.562;2023-04-25T14:11:22;13.20;91.80
27803;DHT22;15182;48.174;11.562;2023-04-25T14:13:53;13.10;91.90
27803;DHT22;15182;48.174;11.562;2023-04-25T14:16:26;13.10;92.00
27803;DHT22;15182;48.174;11.562;2023-04-25T14:19:00;13.10;92.10
27803;DHT22;15182;48.174;11.562;2023-04-25T14:21:31;13.10;92.10
27803;DHT22;15182;48.174;11.562;2023-04-25T14:24:03;13.10;92.30
27803;DHT22;15182;48.174;11.562;2023-04-25T14:26:35;13.00;92.30
27803;DHT22;15182;48.174;11.562;2023-04-25T14:29:07;13.10;92.40
27803;DHT22;15182;48.174;11.562;2023-04-25T14:31:41;13.10;92.50
27803;DHT22;15182;48.174;11.562;2023-04-25T14:34:13;13.10;92.60
27803;DHT22;15182;48.174;11.562;2023-04-25T14:36:44;13.10;92.70
27803;DHT22;15182;48.174;11.562;2023-04-25T14:39:15;13.10;92.80
27803;DHT22;15182;48.174;11.562;2023-04-25T14:41:46;13.10;92.70
27803;DHT22;15182;48.174;11.562;2023-04-25T14:44:17;13.20;92.80
27803;DHT22;15182;48.174;11.562;2023-04-25T14:46:50;13.20;92.70
27803;DHT22;15182;48.174;11.562;2023-04-25T14:49:21;13.30;92.80
27803;DHT22;15182;48.174;11.562;2023-04-25T14:51:53;13.30;92.80
27803;DHT22;15182;48.174;11.562;2023-04-25T14:54:24;13.30;92.80
27803;DHT22;15182;48.174;11.562;2023-04-25T14:56:55;13.30;92.80
27803;DHT22;15182;48.174;11.562;2023-04-25T14:59:26;13.40;92.80
27803;DHT22;15182;48.174;11.562;2023-04-25T15:01:59;13.40;92.80
27803;DHT22;15182;48.174;11.562;2023-04-25T15:04:33;13.40;92.80
27803;DHT22;15182;48.174;11.562;2023-04-25T15:07:04;13.40;92.60
27803;DHT22;15182;48.174;11.562;2023-04-25T15:09:36;13.40;92.60
27803;DHT22;15182;48.174;11.562;2023-04-25T15:12:12;13.40;92.50
27803;DHT22;15182;48.174;11.562;2023-04-25T15:14:43;13.40;92.30
27803;DHT22;15182;48.174;11.562;2023-04-25T15:17:16;13.40;92.40
27803;DHT22;15182;48.174;11.562;2023-04-25T15:19:47;13.40;92.30
27803;DHT22;15182;48.174;11.562;2023-04-25T15:22:19;13.40;92.30
27803;DHT22;15182;48.174;11.562;2023-04-25T15:24:50;13.40;92.40
27803;DHT22;15182;48.174;11.562;2023-04-25T15:27:22;13.40;92.50
27803;DHT22;15182;48.174;11.562;2023-04-25T15:29:54;13.40;92.60
27803;DHT22;15182;48.174;11.562;2023-04-25T15:32:28;13.30;92.50
27803;DHT22;15182;48.174;11.562;2023-04-25T15:35:07;13.40;92.60
27803;DHT22;15182;48.174;11.562;2023-04-25T15:37:40;13.40;92.50
27803;DHT22;15182;48.174;11.562;2023-04-25T15:40:13;13.40;92.50
27803;DHT22;15182;48.174;11.562;2023-04-25T15:42:46;13.40;92.50
27803;DHT22;15182;48.174;11.562;2023-04-25T15:45:24;13.40;92.30
27803;DHT22;15182;48.174;11.562;2023-04-25T15:47:57;13.40;92.40
27803;DHT22;15182;48.174;11.562;2023-04-25T15:50:29;13.40;92.50
27803;DHT22;15182;48.174;11.562;2023-04-25T15:53:02;13.40;92.50
27803;DHT22;15182;48.174;11.562;2023-04-25T15:55:35;13.40;92.50
27803;DHT22;15182;48.174;11.562;2023-04-25T15:58:08;13.40;92.60